createdAt,value
2022-07-29T00:00:45.847Z,100527.20
2022-07-29T00:03:19.183Z,100533.60
2022-07-29T00:05:53.362Z,100532.00
2022-07-29T00:08:26.349Z,100528.20
2022-07-29T00:10:59.249Z,100530.80
2022-07-29T00:13:33.089Z,100530.60
2022-07-29T00:16:06.333Z,100529.80
2022-07-29T00:18:40.894Z,100533.00
2022-07-29T00:21:13.835Z,100533.60
2022-07-29T00:23:47.233Z,100533.40
2022-07-29T00:26:20.036Z,100532.60
2022-07-29T00:29:02.067Z,100532.20
2022-07-29T00:31:45.629Z,100537.80
2022-07-29T00:34:36.452Z,100535.80
2022-07-29T00:37:09.234Z,100531.60
2022-07-29T00:39:42.332Z,100530.80
2022-07-29T00:42:15.124Z,100529.00
2022-07-29T00:44:47.924Z,100528.00
2022-07-29T00:47:20.752Z,100523.60
2022-07-29T00:49:53.563Z,100519.00
2022-07-29T00:52:27.357Z,100519.60
2022-07-29T00:55:03.658Z,100513.60
2022-07-29T00:57:40.109Z,100517.20
2022-07-29T01:00:18.469Z,100520.80
2022-07-29T01:02:51.825Z,100514.60
2022-07-29T01:05:51.134Z,100515.60
2022-07-29T01:08:21.127Z,100519.80
2022-07-29T01:10:55.467Z,100520.20
2022-07-29T01:13:30.077Z,100525.80
2022-07-29T01:16:12.788Z,100523.80
2022-07-29T01:18:52.418Z,100523.80
2022-07-29T01:21:53.560Z,100522.60
2022-07-29T01:25:00.567Z,100520.40
2022-07-29T01:27:50.229Z,100520.80
2022-07-29T01:30:24.895Z,100515.60
2022-07-29T01:33:10.023Z,100512.60
2022-07-29T01:35:46.130Z,100502.20
2022-07-29T01:38:27.719Z,100504.20
2022-07-29T01:41:11.312Z,100507.40
2022-07-29T01:43:53.031Z,100505.40
2022-07-29T01:46:32.715Z,100506.00
2022-07-29T01:49:19.831Z,100505.00
2022-07-29T01:51:59.615Z,100502.40
2022-07-29T01:54:46.760Z,100498.40
2022-07-29T01:57:23.380Z,100499.20
2022-07-29T01:59:58.874Z,100495.60
2022-07-29T02:02:34.200Z,100490.40
2022-07-29T02:05:12.883Z,100488.80
2022-07-29T02:07:48.684Z,100489.20
2022-07-29T02:10:25.855Z,100488.60
2022-07-29T02:13:01.608Z,100485.20
2022-07-29T02:15:38.134Z,100484.00
2022-07-29T02:18:16.921Z,100485.80
2022-07-29T02:20:54.247Z,100486.40
2022-07-29T02:23:28.816Z,100487.80
2022-07-29T02:26:03.264Z,100485.20
2022-07-29T02:28:37.343Z,100479.40
2022-07-29T02:31:12.010Z,100479.40
2022-07-29T02:33:46.219Z,100483.00
2022-07-29T02:36:20.047Z,100483.80
2022-07-29T02:38:54.642Z,100485.80
2022-07-29T02:41:33.175Z,100491.00
2022-07-29T02:44:12.397Z,100482.20
2022-07-29T02:46:54.438Z,100484.80
2022-07-29T02:49:39.130Z,100486.80
2022-07-29T02:52:20.831Z,100491.80
2022-07-29T02:54:59.553Z,100490.20
2022-07-29T02:57:55.486Z,100488.00
2022-07-29T03:00:32.207Z,100485.20
2022-07-29T03:03:11.056Z,100479.80
2022-07-29T03:05:44.144Z,100492.00
2022-07-29T03:08:19.178Z,100487.00
2022-07-29T03:10:53.363Z,100489.00
2022-07-29T03:13:27.266Z,100491.00
2022-07-29T03:16:01.217Z,100493.20
2022-07-29T03:18:35.171Z,100485.60
2022-07-29T03:21:08.348Z,100489.20
2022-07-29T03:23:45.786Z,100495.20
2022-07-29T03:26:18.914Z,100493.80
2022-07-29T03:28:51.946Z,100492.80
2022-07-29T03:31:24.978Z,100494.20
2022-07-29T03:33:58.882Z,100494.60
2022-07-29T03:36:31.799Z,100492.80
2022-07-29T03:39:06.463Z,100494.00
2022-07-29T03:41:42.818Z,100489.20
2022-07-29T03:44:17.805Z,100494.80
2022-07-29T03:46:53.386Z,100500.20
2022-07-29T03:49:28.997Z,100500.40
2022-07-29T03:52:02.390Z,100502.40
2022-07-29T03:54:35.769Z,100502.20
2022-07-29T03:57:09.696Z,100502.60
2022-07-29T03:59:43.297Z,100500.00
2022-07-29T04:02:21.869Z,100511.60
2022-07-29T04:04:56.226Z,100507.80
2022-07-29T04:07:29.313Z,100507.60
2022-07-29T04:10:02.108Z,100507.20
2022-07-29T04:12:35.092Z,100509.60
2022-07-29T04:15:09.760Z,100509.80
2022-07-29T04:17:42.600Z,100509.20
2022-07-29T04:20:16.665Z,100509.40
2022-07-29T04:22:49.530Z,100504.80
2022-07-29T04:25:22.286Z,100503.40
2022-07-29T04:28:04.331Z,100501.60
2022-07-29T04:30:39.586Z,100504.40
2022-07-29T04:33:13.338Z,100500.40
2022-07-29T04:35:50.241Z,100498.80
2022-07-29T04:38:23.499Z,100499.60
2022-07-29T04:40:56.472Z,100496.80
2022-07-29T04:43:29.588Z,100495.00
2022-07-29T04:46:11.817Z,100492.60
2022-07-29T04:48:44.775Z,100495.80
2022-07-29T04:51:18.468Z,100495.60
2022-07-29T04:53:51.596Z,100492.00
2022-07-29T04:56:24.843Z,100496.40
2022-07-29T04:58:58.033Z,100497.60
2022-07-29T05:01:30.985Z,100493.00
2022-07-29T05:04:03.902Z,100491.80
2022-07-29T05:06:36.991Z,100490.60
2022-07-29T05:09:10.095Z,100490.20
2022-07-29T05:11:42.955Z,100488.40
2022-07-29T05:14:15.972Z,100487.00
2022-07-29T05:16:49.974Z,100487.80
2022-07-29T05:19:22.748Z,100485.60
2022-07-29T05:21:55.542Z,100482.20
2022-07-29T05:24:28.337Z,100491.20
2022-07-29T05:27:01.344Z,100495.80
2022-07-29T05:29:44.322Z,100491.20
2022-07-29T05:32:19.193Z,100494.00
2022-07-29T05:34:52.070Z,100488.80
2022-07-29T05:37:26.046Z,100488.80
2022-07-29T05:39:59.070Z,100486.00
2022-07-29T05:42:32.563Z,100494.40
2022-07-29T05:45:06.166Z,100486.80
2022-07-29T05:47:39.014Z,100487.80
2022-07-29T05:50:13.397Z,100493.00
2022-07-29T05:52:46.286Z,100486.20
2022-07-29T05:55:19.415Z,100483.40
2022-07-29T05:57:54.110Z,100485.60
2022-07-29T06:00:27.426Z,100483.00
2022-07-29T06:03:02.482Z,100489.40
2022-07-29T06:05:35.350Z,100489.20
2022-07-29T06:08:09.146Z,100492.20
2022-07-29T06:10:42.142Z,100496.20
2022-07-29T06:13:17.122Z,100495.20
2022-07-29T06:15:50.109Z,100491.80
2022-07-29T06:18:25.111Z,100486.40
2022-07-29T06:20:58.307Z,100482.40
2022-07-29T06:23:31.279Z,100490.40
2022-07-29T06:26:04.207Z,100483.40
2022-07-29T06:28:37.460Z,100488.40
2022-07-29T06:31:12.132Z,100488.80
2022-07-29T06:33:45.133Z,100488.20
2022-07-29T06:36:17.935Z,100482.60
2022-07-29T06:38:51.290Z,100482.00
2022-07-29T06:41:25.273Z,100485.80
2022-07-29T06:43:58.111Z,100489.20
2022-07-29T06:46:30.930Z,100490.40
2022-07-29T06:49:03.881Z,100492.00
2022-07-29T06:51:37.306Z,100500.80
2022-07-29T06:54:10.706Z,100500.00
2022-07-29T06:56:44.439Z,100502.80
2022-07-29T06:59:17.603Z,100490.60
2022-07-29T07:01:50.449Z,100492.80
2022-07-29T07:04:23.389Z,100492.80
2022-07-29T07:06:56.914Z,100496.00
2022-07-29T07:09:39.985Z,100496.80
2022-07-29T07:12:14.298Z,100499.80
2022-07-29T07:14:47.098Z,100494.60
2022-07-29T07:17:19.870Z,100494.20
2022-07-29T07:19:52.652Z,100497.80
2022-07-29T07:22:25.533Z,100491.60
2022-07-29T07:24:58.850Z,100487.20
2022-07-29T07:27:32.273Z,100489.80
2022-07-29T07:30:06.853Z,100487.20
2022-07-29T07:32:40.150Z,100482.00
2022-07-29T07:35:15.154Z,100482.40
2022-07-29T07:37:48.070Z,100478.80
2022-07-29T07:40:20.951Z,100481.20
2022-07-29T07:42:53.880Z,100486.20
2022-07-29T07:45:27.239Z,100484.00
2022-07-29T07:48:00.169Z,100487.60
2022-07-29T07:50:33.239Z,100483.60
2022-07-29T07:53:06.607Z,100481.40
2022-07-29T07:58:37.819Z,100477.80
2022-07-29T08:01:11.147Z,100476.60
2022-07-29T08:03:43.989Z,100478.80
2022-07-29T08:06:16.838Z,100476.20
2022-07-29T08:08:49.589Z,100475.80
2022-07-29T08:11:24.147Z,100475.00
2022-07-29T08:13:57.333Z,100478.40
2022-07-29T08:16:30.404Z,100477.80
2022-07-29T08:19:03.544Z,100473.20
2022-07-29T08:21:36.397Z,100478.00
2022-07-29T08:24:28.531Z,100477.60
2022-07-29T08:27:01.419Z,100480.40
2022-07-29T08:29:34.200Z,100474.60
2022-07-29T08:32:13.401Z,100467.80
2022-07-29T08:34:49.380Z,100472.60
2022-07-29T08:37:22.167Z,100478.60
2022-07-29T08:39:54.949Z,100479.40
2022-07-29T08:42:27.851Z,100479.00
2022-07-29T08:45:01.056Z,100480.20
2022-07-29T08:47:33.913Z,100479.40
2022-07-29T08:50:07.846Z,100473.80
2022-07-29T08:52:43.182Z,100480.40
2022-07-29T08:55:21.398Z,100478.20
2022-07-29T08:57:57.419Z,100474.20
2022-07-29T09:00:31.699Z,100473.20
2022-07-29T09:03:06.025Z,100469.80
2022-07-29T09:05:42.852Z,100475.20
2022-07-29T09:08:18.953Z,100477.80
2022-07-29T09:10:52.872Z,100475.20
2022-07-29T09:13:26.157Z,100472.20
2022-07-29T09:15:58.981Z,100472.20
2022-07-29T09:18:43.154Z,100471.80
2022-07-29T09:21:35.611Z,100471.80
2022-07-29T09:24:14.202Z,100467.80
2022-07-29T09:26:48.749Z,100466.80
2022-07-29T09:29:23.895Z,100461.00
2022-07-29T09:31:57.956Z,100462.20
2022-07-29T09:34:32.857Z,100466.20
2022-07-29T09:37:06.146Z,100468.40
2022-07-29T09:39:47.329Z,100459.80
2022-07-29T09:42:33.743Z,100455.60
2022-07-29T09:45:08.202Z,100454.80
2022-07-29T09:47:52.036Z,100452.40
2022-07-29T09:50:26.884Z,100449.60
2022-07-29T09:52:59.754Z,100453.20
2022-07-29T09:55:32.848Z,100453.40
2022-07-29T09:58:22.524Z,100447.60
2022-07-29T10:00:58.314Z,100447.60
2022-07-29T10:03:31.930Z,100445.00
2022-07-29T10:06:14.707Z,100448.00
2022-07-29T10:08:48.512Z,100445.00
2022-07-29T10:11:22.508Z,100440.00
2022-07-29T10:13:55.646Z,100438.20
2022-07-29T10:16:34.047Z,100441.60
2022-07-29T10:19:07.003Z,100437.20
2022-07-29T10:21:44.605Z,100435.60
2022-07-29T10:24:17.695Z,100438.40
2022-07-29T10:26:51.264Z,100443.40
2022-07-29T10:29:24.392Z,100435.60
2022-07-29T10:32:16.822Z,100434.60
2022-07-29T10:35:13.493Z,100434.20
2022-07-29T10:38:34.166Z,100438.20
2022-07-29T10:41:32.416Z,100433.00
2022-07-29T10:44:23.877Z,100430.20
2022-07-29T10:46:57.191Z,100429.20
2022-07-29T10:49:32.117Z,100429.20
2022-07-29T10:52:10.806Z,100429.00
2022-07-29T10:54:51.724Z,100419.20
2022-07-29T10:57:54.242Z,100424.80
2022-07-29T11:00:35.933Z,100427.00
2022-07-29T11:03:11.012Z,100426.80
2022-07-29T11:06:03.326Z,100420.80
2022-07-29T11:08:42.363Z,100420.20
2022-07-29T11:11:43.718Z,100420.20
2022-07-29T11:14:26.531Z,100427.80
2022-07-29T11:17:09.099Z,100425.20
2022-07-29T11:19:52.023Z,100412.00
2022-07-29T11:22:45.920Z,100411.80
2022-07-29T11:25:42.351Z,100418.80
2022-07-29T11:28:23.119Z,100420.40
2022-07-29T11:30:58.885Z,100423.00
2022-07-29T11:33:54.254Z,100415.00
2022-07-29T11:36:29.362Z,100412.60
2022-07-29T11:39:36.925Z,100423.80
2022-07-29T11:42:44.432Z,100422.60
2022-07-29T11:45:43.764Z,100417.00
2022-07-29T11:48:28.913Z,100419.80
2022-07-29T11:51:13.753Z,100417.60
2022-07-29T11:53:52.670Z,100424.80
2022-07-29T11:56:28.754Z,100421.80
2022-07-29T11:59:10.457Z,100421.40
2022-07-29T12:04:56.971Z,100411.80
2022-07-29T12:07:35.058Z,100417.60
2022-07-29T12:10:11.316Z,100417.60
2022-07-29T12:12:56.306Z,100415.80
2022-07-29T12:15:45.550Z,100407.60
2022-07-29T12:18:24.243Z,100409.00
2022-07-29T12:21:04.914Z,100404.80
2022-07-29T12:23:38.495Z,100404.40
2022-07-29T12:26:21.932Z,100406.20
2022-07-29T12:28:58.987Z,100399.40
2022-07-29T12:31:43.873Z,100396.20
2022-07-29T12:34:19.637Z,100397.40
2022-07-29T12:36:53.233Z,100397.00
2022-07-29T12:39:29.151Z,100394.80
2022-07-29T12:42:04.537Z,100388.00
2022-07-29T12:44:52.633Z,100387.80
2022-07-29T12:47:26.477Z,100384.60
2022-07-29T12:52:56.894Z,100381.60
2022-07-29T12:55:50.116Z,100377.80
2022-07-29T12:58:38.270Z,100379.00
2022-07-29T13:01:18.352Z,100375.60
2022-07-29T13:04:03.553Z,100373.60
2022-07-29T13:06:46.114Z,100376.80
2022-07-29T13:09:25.053Z,100367.80
2022-07-29T13:11:58.466Z,100361.20
2022-07-29T13:14:39.830Z,100366.00
2022-07-29T13:17:16.749Z,100356.00
2022-07-29T13:19:51.328Z,100353.00
2022-07-29T13:22:26.612Z,100355.20
2022-07-29T13:25:03.101Z,100359.80
2022-07-29T13:27:38.442Z,100360.00
2022-07-29T13:30:14.472Z,100352.80
2022-07-29T13:32:47.942Z,100345.40
2022-07-29T13:35:21.492Z,100349.80
2022-07-29T13:37:54.455Z,100337.40
2022-07-29T13:40:27.535Z,100338.20
2022-07-29T13:43:00.400Z,100340.40
2022-07-29T13:45:33.301Z,100337.20
2022-07-29T13:48:07.464Z,100337.60
2022-07-29T13:50:40.185Z,100333.60
2022-07-29T13:53:17.684Z,100332.20
2022-07-29T13:55:52.714Z,100336.60
2022-07-29T13:58:25.916Z,100332.60
2022-07-29T14:00:59.473Z,100336.80
2022-07-29T14:03:32.801Z,100337.80
2022-07-29T14:06:05.790Z,100338.60
2022-07-29T14:08:38.898Z,100340.80
2022-07-29T14:11:11.697Z,100335.40
2022-07-29T14:13:44.538Z,100339.00
2022-07-29T14:16:17.697Z,100337.00
2022-07-29T14:18:50.820Z,100340.80
2022-07-29T14:21:23.607Z,100336.80
2022-07-29T14:23:58.336Z,100324.80
2022-07-29T14:26:31.315Z,100333.60
2022-07-29T14:29:05.147Z,100329.20
2022-07-29T14:31:38.140Z,100333.20
2022-07-29T14:34:11.045Z,100322.00
2022-07-29T14:36:44.213Z,100329.20
2022-07-29T14:39:18.127Z,100322.20
2022-07-29T14:41:50.875Z,100325.60
2022-07-29T14:44:23.654Z,100317.80
2022-07-29T14:46:56.544Z,100314.80
2022-07-29T14:49:29.540Z,100314.00
2022-07-29T14:52:02.638Z,100315.00
2022-07-29T14:54:35.607Z,100317.40
2022-07-29T14:57:08.698Z,100315.40
2022-07-29T14:59:41.472Z,100314.60
2022-07-29T15:02:14.806Z,100314.80
2022-07-29T15:04:49.204Z,100308.60
2022-07-29T15:07:22.011Z,100304.40
2022-07-29T15:09:58.075Z,100308.60
2022-07-29T15:12:32.803Z,100304.20
2022-07-29T15:15:05.761Z,100300.60
2022-07-29T15:17:39.047Z,100297.00
2022-07-29T15:20:13.978Z,100293.80
2022-07-29T15:22:46.853Z,100293.80
2022-07-29T15:25:19.746Z,100294.00
2022-07-29T15:27:54.781Z,100289.80
2022-07-29T15:30:34.676Z,100291.80
2022-07-29T15:33:09.277Z,100294.00
2022-07-29T15:35:45.406Z,100292.00
2022-07-29T15:38:19.493Z,100287.40
2022-07-29T15:40:52.619Z,100285.00
2022-07-29T15:43:26.562Z,100287.60
2022-07-29T15:46:17.870Z,100284.80
2022-07-29T15:48:50.888Z,100282.60
2022-07-29T15:51:23.965Z,100276.60
2022-07-29T15:53:56.892Z,100279.40
2022-07-29T15:56:29.798Z,100281.40
2022-07-29T15:59:02.878Z,100280.80
2022-07-29T16:01:36.470Z,100276.20
2022-07-29T16:04:15.290Z,100277.40
2022-07-29T16:06:49.468Z,100278.40
2022-07-29T16:09:23.089Z,100278.60
2022-07-29T16:11:57.041Z,100276.80
2022-07-29T16:14:30.334Z,100275.20
2022-07-29T16:17:04.350Z,100272.80
2022-07-29T16:19:37.254Z,100269.20
2022-07-29T16:22:11.262Z,100267.80
2022-07-29T16:24:44.110Z,100263.00
2022-07-29T16:27:17.507Z,100262.80
2022-07-29T16:29:50.799Z,100267.20
2022-07-29T16:32:23.584Z,100266.60
2022-07-29T16:34:56.459Z,100268.40
2022-07-29T16:37:33.639Z,100265.20
2022-07-29T16:40:11.806Z,100264.60
2022-07-29T16:42:46.877Z,100263.60
2022-07-29T16:45:21.074Z,100262.60
2022-07-29T16:48:00.989Z,100251.40
2022-07-29T16:50:33.124Z,100249.40
2022-07-29T16:53:06.054Z,100246.40
2022-07-29T16:55:38.798Z,100246.60
2022-07-29T16:58:16.523Z,100254.00
2022-07-29T17:00:49.601Z,100254.40
2022-07-29T17:03:24.711Z,100248.60
2022-07-29T17:05:57.802Z,100246.60
2022-07-29T17:08:30.838Z,100248.20
2022-07-29T17:11:03.528Z,100246.20
2022-07-29T17:13:36.541Z,100242.80
2022-07-29T17:16:10.295Z,100242.80
2022-07-29T17:18:43.158Z,100240.40
2022-07-29T17:21:16.047Z,100235.60
2022-07-29T17:23:49.239Z,100241.40
2022-07-29T17:26:22.153Z,100238.20
2022-07-29T17:28:55.092Z,100240.80
2022-07-29T17:31:27.950Z,100236.40
2022-07-29T17:34:03.121Z,100240.20
2022-07-29T17:36:36.156Z,100243.00
2022-07-29T17:39:12.279Z,100241.00
2022-07-29T17:41:47.095Z,100245.00
2022-07-29T17:44:19.983Z,100246.40
2022-07-29T17:46:52.672Z,100249.40
2022-07-29T17:49:25.684Z,100255.40
2022-07-29T17:52:00.934Z,100263.20
2022-07-29T17:54:34.687Z,100267.20
2022-07-29T17:57:07.496Z,100267.00
2022-07-29T17:59:40.559Z,100269.00
2022-07-29T18:02:14.897Z,100270.00
2022-07-29T18:04:50.578Z,100271.80
2022-07-29T18:07:24.395Z,100271.20
2022-07-29T18:10:00.409Z,100268.20
2022-07-29T18:12:33.892Z,100272.60
2022-07-29T18:15:08.315Z,100271.40
2022-07-29T18:17:57.045Z,100274.80
2022-07-29T18:20:31.145Z,100276.00
2022-07-29T18:23:04.475Z,100277.60
2022-07-29T18:25:37.363Z,100281.20
2022-07-29T18:28:13.733Z,100276.00
2022-07-29T18:30:46.713Z,100275.80
2022-07-29T18:33:22.188Z,100278.60
2022-07-29T18:36:07.631Z,100269.80
2022-07-29T18:38:44.968Z,100280.00
2022-07-29T18:41:18.053Z,100279.00
2022-07-29T18:43:50.947Z,100280.80
2022-07-29T18:46:25.393Z,100283.00
2022-07-29T18:48:59.973Z,100278.80
2022-07-29T18:51:32.937Z,100274.20
2022-07-29T18:54:06.830Z,100273.00
2022-07-29T18:56:39.620Z,100278.60
2022-07-29T18:59:17.177Z,100273.20
2022-07-29T19:01:50.518Z,100277.80
2022-07-29T19:04:23.502Z,100276.40
2022-07-29T19:06:59.554Z,100275.00
2022-07-29T19:09:33.263Z,100275.20
2022-07-29T19:12:08.366Z,100273.00
2022-07-29T19:14:41.081Z,100279.20
2022-07-29T19:17:13.878Z,100281.00
2022-07-29T19:19:46.975Z,100278.60
2022-07-29T19:22:20.244Z,100278.60
2022-07-29T19:24:53.534Z,100273.40
2022-07-29T19:27:26.826Z,100271.60
2022-07-29T19:29:59.728Z,100273.80
2022-07-29T19:32:32.504Z,100269.20
2022-07-29T19:35:23.809Z,100261.40
2022-07-29T19:37:57.992Z,100261.00
2022-07-29T19:40:31.326Z,100258.60
2022-07-29T19:43:04.116Z,100264.00
2022-07-29T19:45:57.026Z,100268.60
2022-07-29T19:48:30.162Z,100269.00
2022-07-29T19:51:03.476Z,100260.40
2022-07-29T19:53:36.422Z,100257.80
2022-07-29T19:56:10.023Z,100250.40
2022-07-29T19:58:44.238Z,100249.00
2022-07-29T20:01:18.145Z,100253.00
2022-07-29T20:03:51.033Z,100255.20
2022-07-29T20:06:24.433Z,100253.40
2022-07-29T20:08:58.901Z,100257.80
2022-07-29T20:11:32.674Z,100259.60
2022-07-29T20:14:06.381Z,100264.00
2022-07-29T20:16:39.068Z,100267.60
2022-07-29T20:19:11.846Z,100269.40
2022-07-29T20:21:44.608Z,100270.80
2022-07-29T20:24:17.493Z,100267.60
2022-07-29T20:26:50.706Z,100270.20
2022-07-29T20:29:23.651Z,100266.20
2022-07-29T20:31:56.822Z,100263.80
2022-07-29T20:34:29.742Z,100266.80
2022-07-29T20:37:02.932Z,100272.00
2022-07-29T20:39:36.172Z,100274.00
2022-07-29T20:42:09.774Z,100276.20
2022-07-29T20:44:42.626Z,100275.80
2022-07-29T20:47:16.318Z,100286.20
2022-07-29T20:49:49.208Z,100284.80
2022-07-29T20:52:23.825Z,100285.20
2022-07-29T20:54:56.707Z,100289.40
2022-07-29T20:57:38.944Z,100289.20
2022-07-29T21:00:14.972Z,100284.40
2022-07-29T21:02:48.075Z,100285.80
2022-07-29T21:05:20.942Z,100282.60
2022-07-29T21:07:57.991Z,100282.80
2022-07-29T21:10:31.357Z,100283.60
2022-07-29T21:13:04.219Z,100274.20
2022-07-29T21:15:37.440Z,100269.80
2022-07-29T21:18:27.076Z,100265.40
2022-07-29T21:21:00.009Z,100264.80
2022-07-29T21:23:33.151Z,100259.20
2022-07-29T21:26:08.728Z,100256.60
2022-07-29T21:28:45.370Z,100257.40
2022-07-29T21:31:25.831Z,100248.40
2022-07-29T21:33:58.816Z,100249.20
2022-07-29T21:36:48.568Z,100254.20
2022-07-29T21:39:21.804Z,100254.40
2022-07-29T21:41:54.526Z,100257.00
2022-07-29T21:44:27.601Z,100251.40
2022-07-29T21:47:00.808Z,100251.60
2022-07-29T21:49:34.154Z,100251.00
2022-07-29T21:52:07.965Z,100248.00
2022-07-29T21:54:41.615Z,100252.60
2022-07-29T21:57:14.585Z,100257.40
2022-07-29T21:59:47.536Z,100258.00
2022-07-29T22:02:20.316Z,100259.00
2022-07-29T22:04:53.112Z,100254.00
2022-07-29T22:07:26.192Z,100258.40
2022-07-29T22:10:19.336Z,100256.20
2022-07-29T22:12:54.176Z,100256.40
2022-07-29T22:15:27.816Z,100256.80
2022-07-29T22:18:00.717Z,100248.80
2022-07-29T22:20:34.522Z,100231.40
2022-07-29T22:23:07.663Z,100227.60
2022-07-29T22:25:40.642Z,100230.40
2022-07-29T22:28:13.526Z,100229.40
2022-07-29T22:30:46.358Z,100233.40
2022-07-29T22:33:19.418Z,100237.40
2022-07-29T22:35:52.309Z,100233.20
2022-07-29T22:38:25.170Z,100226.40
2022-07-29T22:41:00.492Z,100216.20
2022-07-29T22:43:34.420Z,100213.00
2022-07-29T22:46:09.040Z,100202.60
2022-07-29T22:48:41.952Z,100208.00
2022-07-29T22:51:14.907Z,100207.60
2022-07-29T22:53:48.309Z,100203.40
2022-07-29T22:56:22.169Z,100200.00
2022-07-29T22:58:55.826Z,100193.00
2022-07-29T23:01:37.641Z,100183.60
2022-07-29T23:04:11.827Z,100184.00
2022-07-29T23:06:44.720Z,100184.40
2022-07-29T23:09:17.692Z,100180.00
2022-07-29T23:11:50.484Z,100175.40
2022-07-29T23:14:23.268Z,100186.60
2022-07-29T23:16:56.063Z,100187.20
2022-07-29T23:19:28.967Z,100182.40
2022-07-29T23:22:01.819Z,100182.00
2022-07-29T23:24:34.596Z,100177.60
2022-07-29T23:27:07.684Z,100175.80
2022-07-29T23:29:40.476Z,100171.20
2022-07-29T23:32:13.373Z,100173.40
2022-07-29T23:34:46.324Z,100169.80
2022-07-29T23:37:19.054Z,100170.40
2022-07-29T23:39:51.903Z,100167.00
2022-07-29T23:42:24.598Z,100165.60
2022-07-29T23:44:57.277Z,100167.60
2022-07-29T23:47:30.274Z,100169.40
2022-07-29T23:50:03.549Z,100164.40
2022-07-29T23:52:36.522Z,100164.80
2022-07-29T23:55:36.531Z,100160.40
2022-07-29T23:58:05.210Z,100153.40
